createdAt,value
2023-02-09T00:01:28.955Z,3.30
2023-02-09T00:03:57.953Z,3.40
2023-02-09T00:06:26.237Z,3.40
2023-02-09T00:08:53.734Z,3.30
2023-02-09T00:11:47.801Z,3.40
2023-02-09T00:14:16.426Z,3.40
2023-02-09T00:16:43.372Z,3.40
2023-02-09T00:19:10.886Z,3.40
2023-02-09T00:21:38.209Z,3.40
2023-02-09T00:24:06.096Z,3.30
2023-02-09T00:26:33.426Z,3.40
2023-02-09T00:29:00.484Z,3.30
2023-02-09T00:31:27.246Z,3.30
2023-02-09T00:33:54.051Z,3.40
2023-02-09T00:36:21.386Z,3.40
2023-02-09T00:38:48.272Z,3.50
2023-02-09T00:41:16.337Z,3.30
2023-02-09T00:43:43.264Z,3.30
2023-02-09T00:46:10.180Z,3.30
2023-02-09T00:48:36.956Z,3.30
2023-02-09T00:51:04.009Z,3.20
2023-02-09T00:53:30.793Z,3.10
2023-02-09T00:55:57.637Z,3.10
2023-02-09T00:58:24.414Z,3.10
2023-02-09T01:00:52.347Z,3.20
2023-02-09T01:03:19.045Z,3.20
2023-02-09T01:05:45.833Z,3.20
2023-02-09T01:08:12.639Z,3.10
2023-02-09T01:10:39.549Z,3.20
2023-02-09T01:13:06.530Z,3.20
2023-02-09T01:15:33.451Z,3.20
2023-02-09T01:18:00.283Z,3.20
2023-02-09T01:20:27.974Z,3.20
2023-02-09T01:22:54.744Z,3.20
2023-02-09T01:25:21.566Z,3.10
2023-02-09T01:27:48.294Z,3.10
2023-02-09T01:30:15.626Z,3.20
2023-02-09T01:32:42.503Z,3.10
2023-02-09T01:35:09.685Z,3.10
2023-02-09T01:37:36.625Z,3.10
2023-02-09T01:40:04.740Z,3.20
2023-02-09T01:42:31.691Z,3.00
2023-02-09T01:45:08.697Z,2.90
2023-02-09T01:47:43.735Z,3.10
2023-02-09T01:50:11.353Z,2.90
2023-02-09T01:52:38.461Z,2.90
2023-02-09T01:55:08.641Z,2.80
2023-02-09T01:57:39.875Z,2.80
2023-02-09T02:00:15.750Z,2.90
2023-02-09T02:02:46.842Z,2.80
2023-02-09T02:05:14.422Z,2.70
2023-02-09T02:08:00.823Z,2.70
2023-02-09T02:10:27.646Z,2.60
2023-02-09T02:12:54.836Z,2.60
2023-02-09T02:15:27.522Z,2.70
2023-02-09T02:18:15.823Z,2.70
2023-02-09T02:20:56.656Z,2.70
2023-02-09T02:23:53.503Z,2.70
2023-02-09T02:26:23.168Z,2.80
2023-02-09T02:29:08.665Z,2.80
2023-02-09T02:31:38.492Z,2.80
2023-02-09T02:34:09.305Z,2.80
2023-02-09T02:36:47.805Z,2.70
2023-02-09T02:39:38.123Z,2.60
2023-02-09T02:42:26.159Z,2.70
2023-02-09T02:45:13.740Z,2.70
2023-02-09T02:47:46.470Z,2.60
2023-02-09T02:50:16.370Z,2.60
2023-02-09T02:52:47.558Z,2.50
2023-02-09T02:55:17.641Z,2.50
2023-02-09T02:57:50.135Z,2.50
2023-02-09T03:00:26.288Z,2.50
2023-02-09T03:02:56.491Z,2.50
2023-02-09T03:05:24.780Z,2.50
2023-02-09T03:07:51.871Z,2.50
2023-02-09T03:10:27.444Z,2.40
2023-02-09T03:13:07.900Z,2.40
2023-02-09T03:16:15.772Z,2.50
2023-02-09T03:19:10.168Z,2.40
2023-02-09T03:21:46.747Z,2.50
2023-02-09T03:24:55.612Z,2.50
2023-02-09T03:27:27.060Z,2.40
2023-02-09T03:29:57.763Z,2.40
2023-02-09T03:32:26.005Z,2.40
2023-02-09T03:34:54.460Z,2.40
2023-02-09T03:37:22.428Z,2.40
2023-02-09T03:39:49.283Z,2.40
2023-02-09T03:42:16.042Z,2.40
2023-02-09T03:44:42.845Z,2.30
2023-02-09T03:47:10.062Z,2.40
2023-02-09T03:49:41.850Z,2.40
2023-02-09T03:52:11.713Z,2.40
2023-02-09T03:54:38.735Z,2.50
2023-02-09T03:57:05.567Z,2.50
2023-02-09T03:59:35.474Z,2.50
2023-02-09T04:02:03.426Z,2.40
2023-02-09T04:04:30.476Z,2.30
2023-02-09T04:06:57.990Z,2.30
2023-02-09T04:09:26.119Z,2.30
2023-02-09T04:11:53.716Z,2.30
2023-02-09T04:14:20.625Z,2.30
2023-02-09T04:16:47.533Z,2.30
2023-02-09T04:19:14.474Z,2.40
2023-02-09T04:21:41.639Z,2.40
2023-02-09T04:24:08.881Z,2.40
2023-02-09T04:26:35.884Z,2.40
2023-02-09T04:29:02.749Z,2.30
2023-02-09T04:31:29.577Z,2.30
2023-02-09T04:33:56.357Z,2.40
2023-02-09T04:36:23.460Z,2.40
2023-02-09T04:38:50.782Z,2.30
2023-02-09T04:41:18.027Z,2.30
2023-02-09T04:43:48.796Z,2.30
2023-02-09T04:46:17.304Z,2.20
2023-02-09T04:48:45.073Z,2.20
2023-02-09T04:51:12.305Z,2.20
2023-02-09T04:53:39.105Z,2.20
2023-02-09T04:56:06.501Z,2.20
2023-02-09T04:58:52.300Z,2.20
2023-02-09T05:01:22.073Z,2.30
2023-02-09T05:03:48.896Z,2.30
2023-02-09T05:06:15.765Z,2.40
2023-02-09T05:08:42.550Z,2.30
2023-02-09T05:11:09.513Z,2.30
2023-02-09T05:13:36.310Z,2.30
2023-02-09T05:16:13.561Z,2.40
2023-02-09T05:18:40.373Z,2.40
2023-02-09T05:21:07.095Z,2.40
2023-02-09T05:23:34.251Z,2.50
2023-02-09T05:26:01.076Z,2.40
2023-02-09T05:28:28.045Z,2.50
2023-02-09T05:30:54.909Z,2.60
2023-02-09T05:33:23.345Z,2.50
2023-02-09T05:35:56.054Z,2.50
2023-02-09T05:38:23.256Z,2.50
2023-02-09T05:40:50.301Z,2.50
2023-02-09T05:43:17.357Z,2.50
2023-02-09T05:45:44.744Z,2.50
2023-02-09T05:48:11.426Z,2.40
2023-02-09T05:50:38.065Z,2.30
2023-02-09T05:53:04.835Z,2.30
2023-02-09T05:55:31.667Z,2.30
2023-02-09T05:57:58.373Z,2.40
2023-02-09T06:00:26.948Z,2.40
2023-02-09T06:02:53.667Z,2.40
2023-02-09T06:05:21.991Z,2.50
2023-02-09T06:07:49.123Z,2.40
2023-02-09T06:10:19.489Z,2.50
2023-02-09T06:12:46.673Z,2.60
2023-02-09T06:15:16.156Z,2.70
2023-02-09T06:17:43.223Z,2.70
2023-02-09T06:20:10.583Z,2.70
2023-02-09T06:22:37.425Z,2.70
2023-02-09T06:25:04.385Z,2.80
2023-02-09T06:27:31.168Z,2.70
2023-02-09T06:29:57.944Z,2.70
2023-02-09T06:32:24.652Z,2.70
2023-02-09T06:34:51.493Z,2.80
2023-02-09T06:37:18.318Z,2.70
2023-02-09T06:39:44.998Z,2.80
2023-02-09T06:42:11.812Z,2.70
2023-02-09T06:44:38.645Z,2.60
2023-02-09T06:47:05.422Z,2.70
2023-02-09T06:49:32.405Z,2.70
2023-02-09T06:51:59.308Z,2.70
2023-02-09T06:54:28.277Z,2.70
2023-02-09T06:56:55.609Z,2.70
2023-02-09T06:59:22.468Z,2.70
2023-02-09T07:01:54.752Z,2.70
2023-02-09T07:04:22.224Z,2.80
2023-02-09T07:06:48.992Z,3.00
2023-02-09T07:09:15.708Z,2.80
2023-02-09T07:11:42.685Z,3.00
2023-02-09T07:14:09.487Z,3.00
2023-02-09T07:16:36.237Z,3.10
2023-02-09T07:19:03.189Z,3.10
2023-02-09T07:21:29.874Z,3.20
2023-02-09T07:23:56.721Z,3.10
2023-02-09T07:26:23.496Z,3.10
2023-02-09T07:28:50.255Z,3.10
2023-02-09T07:31:17.224Z,3.10
2023-02-09T07:33:44.433Z,3.10
2023-02-09T07:36:13.336Z,3.10
2023-02-09T07:38:41.424Z,3.10
2023-02-09T07:41:17.099Z,3.10
2023-02-09T07:43:43.819Z,3.20
2023-02-09T07:46:13.511Z,3.20
2023-02-09T07:48:40.344Z,3.20
2023-02-09T07:51:07.148Z,3.20
2023-02-09T07:53:34.093Z,3.30
2023-02-09T07:56:00.865Z,3.40
2023-02-09T07:58:27.614Z,3.40
2023-02-09T08:00:54.381Z,3.30
2023-02-09T08:03:23.884Z,3.30
2023-02-09T08:06:43.427Z,3.40
2023-02-09T08:09:12.779Z,3.40
2023-02-09T08:11:45.618Z,3.40
2023-02-09T08:14:22.074Z,3.50
2023-02-09T08:16:50.210Z,3.60
2023-02-09T08:19:23.904Z,3.60
2023-02-09T08:21:51.421Z,3.50
2023-02-09T08:24:20.148Z,3.60
2023-02-09T08:26:46.930Z,3.60
2023-02-09T08:29:13.873Z,3.50
2023-02-09T08:31:40.828Z,3.70
2023-02-09T08:34:07.824Z,3.80
2023-02-09T08:36:37.534Z,3.70
2023-02-09T08:39:05.339Z,3.70
2023-02-09T08:41:32.188Z,3.70
2023-02-09T08:43:58.847Z,3.80
2023-02-09T08:46:25.846Z,3.60
2023-02-09T08:48:52.991Z,3.70
2023-02-09T08:51:19.885Z,3.70
2023-02-09T08:53:52.171Z,3.80
2023-02-09T08:56:20.946Z,3.90
2023-02-09T08:58:48.758Z,4.00
2023-02-09T09:01:15.953Z,4.10
2023-02-09T09:03:42.880Z,4.20
2023-02-09T09:06:11.457Z,4.20
2023-02-09T09:08:38.947Z,4.20
2023-02-09T09:11:13.174Z,4.20
2023-02-09T09:13:40.770Z,4.20
2023-02-09T09:16:13.189Z,4.30
2023-02-09T09:18:40.119Z,4.40
2023-02-09T09:21:06.919Z,4.50
2023-02-09T09:23:33.596Z,4.40
2023-02-09T09:26:02.209Z,4.60
2023-02-09T09:28:29.834Z,4.60
2023-02-09T09:30:58.779Z,4.50
2023-02-09T09:33:25.718Z,4.60
2023-02-09T09:35:52.361Z,4.50
2023-02-09T09:38:19.154Z,4.70
2023-02-09T09:40:46.237Z,4.70
2023-02-09T09:43:33.542Z,4.60
2023-02-09T09:46:01.971Z,4.70
2023-02-09T09:48:37.726Z,4.80
2023-02-09T09:51:22.304Z,4.70
2023-02-09T09:53:53.309Z,4.50
2023-02-09T09:56:21.449Z,4.60
2023-02-09T09:58:49.799Z,4.70
2023-02-09T10:01:20.364Z,4.80
2023-02-09T10:03:47.455Z,4.70
2023-02-09T10:06:20.454Z,4.30
2023-02-09T10:08:56.524Z,4.50
2023-02-09T10:11:45.317Z,4.70
2023-02-09T10:14:12.199Z,4.90
2023-02-09T10:16:39.278Z,5.00
2023-02-09T10:19:27.051Z,5.00
2023-02-09T10:21:55.057Z,5.20
2023-02-09T10:24:29.081Z,5.40
2023-02-09T10:27:14.753Z,5.50
2023-02-09T10:29:42.276Z,5.50
2023-02-09T10:32:29.242Z,5.40
2023-02-09T10:34:57.896Z,5.50
2023-02-09T10:37:37.381Z,5.60
2023-02-09T10:40:13.175Z,5.80
2023-02-09T10:42:49.548Z,6.00
2023-02-09T10:45:25.163Z,6.20
2023-02-09T10:48:10.591Z,6.20
2023-02-09T10:50:58.905Z,6.10
2023-02-09T10:53:30.648Z,6.00
2023-02-09T10:56:05.729Z,6.00
2023-02-09T10:58:37.474Z,6.00
2023-02-09T11:01:10.255Z,6.20
2023-02-09T11:03:48.592Z,6.40
2023-02-09T11:06:19.726Z,6.90
2023-02-09T11:08:58.068Z,7.60
2023-02-09T11:11:37.378Z,7.90
2023-02-09T11:14:09.876Z,8.50
2023-02-09T11:17:07.302Z,9.70
2023-02-09T11:20:01.537Z,9.40
2023-02-09T11:23:00.536Z,9.00
2023-02-09T11:25:41.957Z,8.80
2023-02-09T11:28:31.829Z,9.50
2023-02-09T11:31:17.548Z,10.80
2023-02-09T11:33:53.071Z,13.30
2023-02-09T11:36:31.540Z,16.80
2023-02-09T11:39:20.275Z,18.10
2023-02-09T11:42:30.727Z,20.00
2023-02-09T11:45:06.739Z,21.40
2023-02-09T11:47:42.882Z,22.10
2023-02-09T11:50:19.757Z,21.80
2023-02-09T11:52:57.285Z,21.50
2023-02-09T11:55:39.871Z,22.60
2023-02-09T11:58:12.246Z,23.60
2023-02-09T12:00:57.841Z,24.10
2023-02-09T12:03:28.623Z,22.80
2023-02-09T12:05:56.695Z,21.80
2023-02-09T12:08:35.109Z,22.40
2023-02-09T12:11:25.280Z,22.50
2023-02-09T12:14:13.547Z,22.60
2023-02-09T12:16:45.786Z,22.30
2023-02-09T12:19:33.536Z,22.40
2023-02-09T12:22:35.667Z,22.90
2023-02-09T12:25:17.728Z,23.00
2023-02-09T12:28:16.923Z,24.10
2023-02-09T12:30:43.916Z,25.40
2023-02-09T12:33:30.995Z,26.40
2023-02-09T12:36:09.370Z,25.60
2023-02-09T12:38:57.227Z,25.00
2023-02-09T12:41:35.087Z,25.40
2023-02-09T12:44:11.028Z,25.30
2023-02-09T12:46:46.814Z,25.70
2023-02-09T12:49:22.664Z,25.80
2023-02-09T12:51:52.345Z,27.10
2023-02-09T12:54:40.166Z,27.40
2023-02-09T12:57:16.266Z,26.60
2023-02-09T12:59:52.682Z,23.10
2023-02-09T13:02:30.237Z,19.10
2023-02-09T13:05:11.566Z,19.00
2023-02-09T13:07:56.838Z,21.40
2023-02-09T13:10:39.153Z,22.60
2023-02-09T13:13:10.542Z,23.70
2023-02-09T13:16:00.454Z,24.90
2023-02-09T13:18:55.471Z,24.80
2023-02-09T13:21:27.008Z,25.50
2023-02-09T13:24:06.865Z,24.60
2023-02-09T13:26:37.098Z,23.90
2023-02-09T13:29:19.242Z,24.10
2023-02-09T13:31:55.712Z,24.10
2023-02-09T13:34:40.116Z,22.60
2023-02-09T13:37:26.930Z,22.60
2023-02-09T13:40:03.093Z,22.00
2023-02-09T13:42:35.254Z,22.30
2023-02-09T13:45:02.399Z,23.40
2023-02-09T13:47:29.607Z,23.50
2023-02-09T13:49:58.807Z,22.90
2023-02-09T13:52:26.928Z,23.80
2023-02-09T13:54:54.364Z,23.50
2023-02-09T13:57:39.594Z,22.80
2023-02-09T14:00:28.091Z,22.10
2023-02-09T14:03:02.386Z,21.40
2023-02-09T14:05:48.937Z,21.10
2023-02-09T14:08:18.327Z,20.60
2023-02-09T14:11:26.078Z,20.70
2023-02-09T14:14:21.918Z,20.80
2023-02-09T14:17:22.886Z,21.30
2023-02-09T14:19:52.432Z,21.10
2023-02-09T14:22:38.372Z,21.10
2023-02-09T14:25:14.077Z,22.20
2023-02-09T14:27:45.608Z,21.90
2023-02-09T14:30:20.432Z,22.90
2023-02-09T14:32:55.343Z,22.80
2023-02-09T14:35:24.415Z,22.90
2023-02-09T14:37:53.543Z,22.90
2023-02-09T14:40:32.069Z,21.80
2023-02-09T14:43:11.044Z,20.40
2023-02-09T14:45:47.872Z,19.90
2023-02-09T14:48:20.666Z,18.20
2023-02-09T14:50:49.869Z,16.10
2023-02-09T14:53:17.910Z,14.90
2023-02-09T14:55:45.394Z,13.60
2023-02-09T14:58:30.496Z,13.20
2023-02-09T15:01:01.105Z,12.20
2023-02-09T15:03:28.270Z,11.50
2023-02-09T15:06:00.908Z,10.90
2023-02-09T15:08:31.006Z,10.70
2023-02-09T15:11:01.246Z,10.40
2023-02-09T15:13:30.362Z,10.10
2023-02-09T15:15:57.331Z,9.80
2023-02-09T15:18:26.708Z,9.40
2023-02-09T15:20:53.551Z,9.30
2023-02-09T15:23:20.314Z,9.40
2023-02-09T15:25:48.035Z,9.60
2023-02-09T15:28:27.980Z,9.50
2023-02-09T15:30:56.405Z,9.60
2023-02-09T15:33:23.399Z,9.60
2023-02-09T15:35:50.264Z,9.60
2023-02-09T15:38:18.418Z,9.60
2023-02-09T15:41:06.442Z,9.60
2023-02-09T15:43:52.238Z,9.10
2023-02-09T15:46:37.681Z,8.70
2023-02-09T15:49:06.236Z,9.00
2023-02-09T15:51:36.728Z,9.20
2023-02-09T15:54:09.221Z,9.10
2023-02-09T15:56:37.252Z,9.00
2023-02-09T15:59:05.582Z,9.00
2023-02-09T16:01:35.781Z,9.00
2023-02-09T16:04:13.402Z,8.90
2023-02-09T16:06:47.290Z,8.90
2023-02-09T16:09:21.299Z,8.70
2023-02-09T16:11:48.623Z,8.60
2023-02-09T16:14:18.056Z,8.70
2023-02-09T16:16:45.806Z,8.70
2023-02-09T16:19:13.683Z,8.70
2023-02-09T16:21:43.980Z,8.60
2023-02-09T16:24:37.488Z,8.40
2023-02-09T16:27:14.754Z,8.30
2023-02-09T16:29:41.728Z,7.90
2023-02-09T16:32:16.872Z,7.80
2023-02-09T16:34:44.920Z,7.80
2023-02-09T16:37:15.662Z,7.70
2023-02-09T16:39:43.333Z,7.60
2023-02-09T16:42:12.928Z,7.70
2023-02-09T16:44:40.195Z,7.80
2023-02-09T16:47:18.284Z,7.80
2023-02-09T16:49:59.368Z,7.80
2023-02-09T16:52:27.388Z,7.50
2023-02-09T16:54:58.057Z,7.40
2023-02-09T16:57:26.479Z,7.30
2023-02-09T16:59:54.863Z,7.40
2023-02-09T17:02:42.396Z,7.30
2023-02-09T17:05:26.094Z,7.10
2023-02-09T17:07:59.664Z,7.10
2023-02-09T17:10:29.804Z,7.10
2023-02-09T17:12:56.977Z,6.90
2023-02-09T17:15:31.538Z,7.00
2023-02-09T17:18:04.193Z,6.90
2023-02-09T17:20:38.139Z,6.80
2023-02-09T17:23:05.627Z,6.90
2023-02-09T17:25:33.201Z,6.90
2023-02-09T17:28:00.042Z,6.80
2023-02-09T17:30:26.967Z,6.80
2023-02-09T17:33:01.375Z,6.90
2023-02-09T17:35:58.076Z,7.00
2023-02-09T17:38:22.593Z,6.90
2023-02-09T17:40:50.761Z,7.00
2023-02-09T17:43:17.671Z,6.70
2023-02-09T17:45:49.184Z,6.80
2023-02-09T17:48:17.028Z,6.70
2023-02-09T17:50:44.881Z,6.60
2023-02-09T17:53:18.680Z,6.60
2023-02-09T17:55:46.094Z,6.50
2023-02-09T17:58:14.564Z,6.50
2023-02-09T18:00:42.755Z,6.60
2023-02-09T18:03:16.548Z,6.60
2023-02-09T18:05:43.990Z,6.60
2023-02-09T18:08:11.011Z,6.60
2023-02-09T18:10:38.152Z,6.60
2023-02-09T18:13:05.071Z,6.50
2023-02-09T18:15:35.896Z,6.60
2023-02-09T18:18:03.210Z,6.50
2023-02-09T18:20:33.273Z,6.40
2023-02-09T18:23:02.519Z,6.40
2023-02-09T18:25:35.206Z,6.40
2023-02-09T18:28:02.738Z,6.30
2023-02-09T18:30:38.338Z,6.20
2023-02-09T18:33:06.080Z,6.10
2023-02-09T18:35:39.220Z,6.20
2023-02-09T18:38:08.432Z,6.00
2023-02-09T18:40:35.774Z,5.80
2023-02-09T18:43:04.928Z,5.70
2023-02-09T18:45:32.396Z,5.60
2023-02-09T18:47:59.582Z,5.60
2023-02-09T18:50:29.852Z,5.70
2023-02-09T18:52:59.991Z,5.70
2023-02-09T18:55:29.334Z,5.90
2023-02-09T18:57:58.230Z,5.80
2023-02-09T19:00:25.304Z,5.80
2023-02-09T19:02:54.169Z,5.80
2023-02-09T19:05:21.330Z,5.80
2023-02-09T19:07:48.255Z,5.70
2023-02-09T19:10:18.311Z,5.50
2023-02-09T19:12:45.581Z,5.60
2023-02-09T19:15:13.597Z,5.40
2023-02-09T19:17:41.342Z,5.40
2023-02-09T19:20:19.898Z,5.50
2023-02-09T19:22:47.929Z,5.60
2023-02-09T19:25:15.320Z,5.50
2023-02-09T19:27:42.497Z,5.20
2023-02-09T19:30:13.182Z,5.10
2023-02-09T19:32:41.024Z,5.10
2023-02-09T19:35:08.074Z,5.20
2023-02-09T19:37:35.035Z,5.30
2023-02-09T19:40:10.535Z,5.10
2023-02-09T19:42:37.246Z,5.10
2023-02-09T19:45:04.137Z,5.30
2023-02-09T19:47:30.852Z,5.30
2023-02-09T19:49:58.402Z,5.30
2023-02-09T19:52:26.791Z,5.30
2023-02-09T19:54:54.103Z,5.40
2023-02-09T19:57:21.931Z,5.30
2023-02-09T19:59:48.814Z,5.40
2023-02-09T20:02:16.730Z,5.40
2023-02-09T20:04:45.828Z,5.30
2023-02-09T20:07:14.093Z,5.20
2023-02-09T20:09:41.415Z,5.10
2023-02-09T20:12:08.393Z,5.20
2023-02-09T20:14:35.171Z,5.20
2023-02-09T20:17:01.916Z,5.20
2023-02-09T20:19:28.867Z,5.20
2023-02-09T20:21:55.714Z,5.20
2023-02-09T20:24:23.706Z,5.30
2023-02-09T20:26:50.483Z,5.10
2023-02-09T20:29:18.984Z,5.00
2023-02-09T20:31:45.903Z,4.90
2023-02-09T20:34:15.596Z,4.80
2023-02-09T20:36:44.760Z,4.80
2023-02-09T20:39:15.842Z,4.80
2023-02-09T20:42:04.495Z,4.80
2023-02-09T20:44:50.832Z,4.90
2023-02-09T20:47:18.457Z,4.90
2023-02-09T20:49:45.407Z,5.00
2023-02-09T20:52:12.360Z,5.00
2023-02-09T20:54:39.150Z,5.00
2023-02-09T20:57:05.984Z,5.00
2023-02-09T20:59:34.244Z,4.90
2023-02-09T21:02:01.535Z,5.00
2023-02-09T21:04:30.138Z,5.10
2023-02-09T21:06:58.744Z,5.00
2023-02-09T21:09:26.326Z,5.00
2023-02-09T21:11:53.741Z,5.00
2023-02-09T21:14:32.611Z,5.00
2023-02-09T21:17:06.230Z,5.00
2023-02-09T21:19:36.047Z,5.00
2023-02-09T21:22:02.782Z,5.00
2023-02-09T21:24:29.605Z,5.00
2023-02-09T21:26:56.288Z,5.00
2023-02-09T21:29:23.100Z,4.90
2023-02-09T21:31:51.243Z,4.90
2023-02-09T21:34:18.097Z,4.90
2023-02-09T21:36:45.001Z,4.80
2023-02-09T21:39:12.574Z,4.80
2023-02-09T21:41:58.195Z,4.80
2023-02-09T21:44:25.031Z,4.90
2023-02-09T21:46:52.151Z,4.80
2023-02-09T21:49:18.928Z,4.80
2023-02-09T21:51:45.792Z,4.80
2023-02-09T21:54:14.433Z,4.70
2023-02-09T21:56:41.770Z,4.70
2023-02-09T21:59:08.632Z,4.70
2023-02-09T22:01:36.219Z,4.60
2023-02-09T22:04:03.816Z,4.60
2023-02-09T22:06:31.454Z,4.70
2023-02-09T22:09:00.415Z,4.60
2023-02-09T22:11:27.300Z,4.60
2023-02-09T22:13:54.211Z,4.60
2023-02-09T22:16:22.579Z,4.50
2023-02-09T22:18:49.866Z,4.60
2023-02-09T22:21:17.355Z,4.60
2023-02-09T22:23:44.069Z,4.60
2023-02-09T22:26:13.707Z,4.60
2023-02-09T22:28:41.512Z,4.70
2023-02-09T22:31:17.282Z,4.40
2023-02-09T22:33:44.052Z,4.30
2023-02-09T22:36:18.221Z,4.10
2023-02-09T22:38:45.711Z,4.00
2023-02-09T22:41:24.486Z,4.00
2023-02-09T22:43:56.952Z,4.10
2023-02-09T22:46:29.932Z,4.20
2023-02-09T22:48:58.921Z,4.30
2023-02-09T22:51:28.341Z,4.30
2023-02-09T22:53:55.904Z,4.30
2023-02-09T22:56:23.203Z,4.40
2023-02-09T22:58:52.055Z,4.40
2023-02-09T23:01:18.994Z,4.50
2023-02-09T23:03:45.810Z,4.40
2023-02-09T23:06:17.301Z,4.10
2023-02-09T23:08:44.679Z,3.90
2023-02-09T23:11:13.973Z,3.90
2023-02-09T23:13:41.026Z,3.70
2023-02-09T23:16:14.410Z,3.70
2023-02-09T23:18:49.976Z,3.70
2023-02-09T23:21:17.434Z,3.80
2023-02-09T23:23:44.686Z,3.80
2023-02-09T23:26:12.447Z,3.70
2023-02-09T23:28:39.413Z,3.50
2023-02-09T23:31:08.109Z,3.60
2023-02-09T23:33:36.197Z,3.40
2023-02-09T23:36:07.656Z,3.40
2023-02-09T23:38:34.417Z,3.30
2023-02-09T23:41:09.961Z,3.20
2023-02-09T23:43:36.775Z,3.00
2023-02-09T23:46:05.712Z,2.90
2023-02-09T23:48:33.579Z,2.80
2023-02-09T23:51:06.485Z,2.70
2023-02-09T23:53:34.564Z,2.70
2023-02-09T23:56:05.001Z,2.60
2023-02-09T23:58:36.526Z,2.50
